sensor_id;sensor_type;location;lat;lon;timestamp;pressure;altitude;pressure_sealevel;temperature;humidity
52105;BME280;38103;42.776;23.112;2024-03-02T00:00:08;93533.84;;;5.33;87.90
52105;BME280;38103;42.776;23.112;2024-03-02T00:02:43;93529.69;;;5.32;87.58
52105;BME280;38103;42.776;23.112;2024-03-02T00:05:17;93530.78;;;5.31;87.37
52105;BME280;38103;42.776;23.112;2024-03-02T00:07:56;93532.97;;;5.29;87.90
52105;BME280;38103;42.776;23.112;2024-03-02T00:10:25;93529.72;;;5.19;87.30
52105;BME280;38103;42.776;23.112;2024-03-02T00:12:57;93538.06;;;5.21;87.82
52105;BME280;38103;42.776;23.112;2024-03-02T00:16:01;93533.41;;;5.31;87.49
52105;BME280;38103;42.776;23.112;2024-03-02T00:18:34;93539.97;;;5.37;86.18
52105;BME280;38103;42.776;23.112;2024-03-02T00:21:00;93545.69;;;5.27;86.88
52105;BME280;38103;42.776;23.112;2024-03-02T00:23:33;93551.97;;;5.22;87.41
52105;BME280;38103;42.776;23.112;2024-03-02T00:26:00;93544.06;;;5.22;87.41
52105;BME280;38103;42.776;23.112;2024-03-02T00:28:27;93543.19;;;5.30;87.55
52105;BME280;38103;42.776;23.112;2024-03-02T00:33:33;93540.66;;;5.34;87.86
52105;BME280;38103;42.776;23.112;2024-03-02T00:35:59;93534.03;;;5.40;87.71
52105;BME280;38103;42.776;23.112;2024-03-02T00:38:25;93535.75;;;5.48;85.58
52105;BME280;38103;42.776;23.112;2024-03-02T00:40:51;93537.97;;;5.46;85.79
52105;BME280;38103;42.776;23.112;2024-03-02T00:43:40;93533.63;;;5.54;86.63
52105;BME280;38103;42.776;23.112;2024-03-02T00:46:06;93530.00;;;5.58;85.05
52105;BME280;38103;42.776;23.112;2024-03-02T00:48:32;93527.97;;;5.67;85.21
52105;BME280;38103;42.776;23.112;2024-03-02T00:51:01;93530.44;;;5.60;85.39
52105;BME280;38103;42.776;23.112;2024-03-02T00:53:29;93523.78;;;5.51;86.39
52105;BME280;38103;42.776;23.112;2024-03-02T00:55:55;93526.28;;;5.59;85.18
52105;BME280;38103;42.776;23.112;2024-03-02T00:58:20;93529.53;;;5.69;85.38
52105;BME280;38103;42.776;23.112;2024-03-02T01:00:46;93525.69;;;5.66;84.18
52105;BME280;38103;42.776;23.112;2024-03-02T01:03:12;93528.47;;;5.57;86.40
52105;BME280;38103;42.776;23.112;2024-03-02T01:05:43;93517.94;;;5.57;85.83
52105;BME280;38103;42.776;23.112;2024-03-02T01:08:10;93524.91;;;5.65;85.25
52105;BME280;38103;42.776;23.112;2024-03-02T01:10:35;93516.09;;;5.74;85.19
52105;BME280;38103;42.776;23.112;2024-03-02T01:13:00;93520.69;;;5.77;85.38
52105;BME280;38103;42.776;23.112;2024-03-02T01:15:26;93517.72;;;5.78;84.92
52105;BME280;38103;42.776;23.112;2024-03-02T01:17:51;93512.47;;;5.78;84.99
52105;BME280;38103;42.776;23.112;2024-03-02T01:20:16;93511.69;;;5.78;83.90
52105;BME280;38103;42.776;23.112;2024-03-02T01:22:42;93510.22;;;5.64;85.21
52105;BME280;38103;42.776;23.112;2024-03-02T01:25:08;93506.06;;;5.63;86.06
52105;BME280;38103;42.776;23.112;2024-03-02T01:27:34;93502.75;;;5.51;86.80
52105;BME280;38103;42.776;23.112;2024-03-02T01:29:59;93500.69;;;5.44;86.79
52105;BME280;38103;42.776;23.112;2024-03-02T01:32:25;93493.56;;;5.44;86.34
52105;BME280;38103;42.776;23.112;2024-03-02T01:34:50;93494.09;;;5.50;85.63
52105;BME280;38103;42.776;23.112;2024-03-02T01:37:16;93492.28;;;5.54;86.91
52105;BME280;38103;42.776;23.112;2024-03-02T01:39:41;93492.06;;;5.59;85.68
52105;BME280;38103;42.776;23.112;2024-03-02T01:42:06;93487.63;;;5.63;85.88
52105;BME280;38103;42.776;23.112;2024-03-02T01:44:31;93485.88;;;5.67;84.89
52105;BME280;38103;42.776;23.112;2024-03-02T01:46:57;93487.84;;;5.71;85.42
52105;BME280;38103;42.776;23.112;2024-03-02T01:49:23;93486.28;;;5.70;85.27
52105;BME280;38103;42.776;23.112;2024-03-02T01:51:48;93479.50;;;5.69;85.44
52105;BME280;38103;42.776;23.112;2024-03-02T01:54:13;93483.06;;;5.60;85.58
52105;BME280;38103;42.776;23.112;2024-03-02T01:56:39;93485.50;;;5.53;86.60
52105;BME280;38103;42.776;23.112;2024-03-02T01:59:04;93478.81;;;5.56;85.70
52105;BME280;38103;42.776;23.112;2024-03-02T02:01:30;93485.84;;;5.52;87.52
52105;BME280;38103;42.776;23.112;2024-03-02T02:03:56;93489.59;;;5.51;86.08
52105;BME280;38103;42.776;23.112;2024-03-02T02:06:21;93491.69;;;5.45;87.25
52105;BME280;38103;42.776;23.112;2024-03-02T02:08:47;93492.38;;;5.42;86.32
52105;BME280;38103;42.776;23.112;2024-03-02T02:11:15;93487.38;;;5.37;86.40
52105;BME280;38103;42.776;23.112;2024-03-02T02:13:40;93479.22;;;5.42;87.37
52105;BME280;38103;42.776;23.112;2024-03-02T02:16:09;93485.25;;;5.42;86.84
52105;BME280;38103;42.776;23.112;2024-03-02T02:18:35;93478.53;;;5.45;86.61
52105;BME280;38103;42.776;23.112;2024-03-02T02:21:01;93482.28;;;5.44;87.43
52105;BME280;38103;42.776;23.112;2024-03-02T02:23:27;93480.75;;;5.43;87.27
52105;BME280;38103;42.776;23.112;2024-03-02T02:25:52;93488.66;;;5.43;87.11
52105;BME280;38103;42.776;23.112;2024-03-02T02:28:17;93481.41;;;5.40;87.65
52105;BME280;38103;42.776;23.112;2024-03-02T02:30:43;93485.66;;;5.44;88.12
52105;BME280;38103;42.776;23.112;2024-03-02T02:33:08;93480.22;;;5.37;87.04
52105;BME280;38103;42.776;23.112;2024-03-02T02:35:34;93480.41;;;5.44;87.98
52105;BME280;38103;42.776;23.112;2024-03-02T02:37:59;93480.56;;;5.52;86.63
52105;BME280;38103;42.776;23.112;2024-03-02T02:40:26;93473.13;;;5.54;86.88
52105;BME280;38103;42.776;23.112;2024-03-02T02:42:51;93477.94;;;5.52;88.29
52105;BME280;38103;42.776;23.112;2024-03-02T02:45:17;93478.75;;;5.52;88.04
52105;BME280;38103;42.776;23.112;2024-03-02T02:47:43;93476.34;;;5.47;87.73
52105;BME280;38103;42.776;23.112;2024-03-02T02:50:10;93474.72;;;5.42;88.39
52105;BME280;38103;42.776;23.112;2024-03-02T02:52:38;93480.66;;;5.39;87.89
52105;BME280;38103;42.776;23.112;2024-03-02T02:55:14;93478.88;;;5.43;87.68
52105;BME280;38103;42.776;23.112;2024-03-02T02:57:41;93482.28;;;5.44;88.86
52105;BME280;38103;42.776;23.112;2024-03-02T03:00:10;93478.53;;;5.45;87.71
52105;BME280;38103;42.776;23.112;2024-03-02T03:02:38;93481.16;;;5.45;88.45
52105;BME280;38103;42.776;23.112;2024-03-02T03:05:08;93480.84;;;5.46;87.08
52105;BME280;38103;42.776;23.112;2024-03-02T03:07:34;93478.22;;;5.46;88.13
52105;BME280;38103;42.776;23.112;2024-03-02T03:10:03;93481.78;;;5.54;88.32
52105;BME280;38103;42.776;23.112;2024-03-02T03:12:29;93488.66;;;5.59;87.96
52105;BME280;38103;42.776;23.112;2024-03-02T03:14:55;93485.69;;;5.60;87.85
52105;BME280;38103;42.776;23.112;2024-03-02T03:17:21;93483.06;;;5.60;87.45
52105;BME280;38103;42.776;23.112;2024-03-02T03:19:46;93484.78;;;5.69;86.40
52105;BME280;38103;42.776;23.112;2024-03-02T03:22:12;93487.41;;;5.69;85.62
52105;BME280;38103;42.776;23.112;2024-03-02T03:24:38;93486.28;;;5.70;85.94
52105;BME280;38103;42.776;23.112;2024-03-02T03:27:04;93485.97;;;5.71;86.37
52105;BME280;38103;42.776;23.112;2024-03-02T03:29:29;93485.69;;;5.76;86.52
52105;BME280;38103;42.776;23.112;2024-03-02T03:31:54;93488.66;;;5.75;86.35
52105;BME280;38103;42.776;23.112;2024-03-02T03:34:20;93491.72;;;5.77;85.56
52105;BME280;38103;42.776;23.112;2024-03-02T03:36:45;93486.28;;;5.70;87.04
52105;BME280;38103;42.776;23.112;2024-03-02T03:39:10;93487.25;;;5.61;87.06
52105;BME280;38103;42.776;23.112;2024-03-02T03:41:36;93488.66;;;5.59;86.89
52105;BME280;38103;42.776;23.112;2024-03-02T03:44:01;93480.34;;;5.57;88.07
52105;BME280;38103;42.776;23.112;2024-03-02T03:46:27;93485.94;;;5.55;87.60
52105;BME280;38103;42.776;23.112;2024-03-02T03:48:52;93482.44;;;5.51;88.34
52105;BME280;38103;42.776;23.112;2024-03-02T03:51:17;93483.75;;;5.57;87.07
52105;BME280;38103;42.776;23.112;2024-03-02T03:53:43;93483.00;;;5.57;88.38
52105;BME280;38103;42.776;23.112;2024-03-02T03:56:08;93473.22;;;5.57;87.70
52105;BME280;38103;42.776;23.112;2024-03-02T03:58:33;93473.97;;;5.58;88.82
52105;BME280;38103;42.776;23.112;2024-03-02T04:00:59;93481.97;;;5.61;88.45
52105;BME280;38103;42.776;23.112;2024-03-02T04:03:24;93485.69;;;5.60;86.90
52105;BME280;38103;42.776;23.112;2024-03-02T04:05:50;93488.75;;;5.62;87.41
52105;BME280;38103;42.776;23.112;2024-03-02T04:08:15;93480.94;;;5.66;87.21
52105;BME280;38103;42.776;23.112;2024-03-02T04:10:41;93484.41;;;5.70;86.84
52105;BME280;38103;42.776;23.112;2024-03-02T04:13:07;93486.66;;;5.68;87.07
52105;BME280;38103;42.776;23.112;2024-03-02T04:15:33;93490.03;;;5.69;86.58
52105;BME280;38103;42.776;23.112;2024-03-02T04:17:59;93481.13;;;5.57;87.48
52105;BME280;38103;42.776;23.112;2024-03-02T04:20:24;93488.75;;;5.62;87.30
52105;BME280;38103;42.776;23.112;2024-03-02T04:22:50;93489.59;;;5.66;86.70
52105;BME280;38103;42.776;23.112;2024-03-02T04:25:16;93484.50;;;5.74;86.49
52105;BME280;38103;42.776;23.112;2024-03-02T04:27:41;93487.56;;;5.76;86.52
52105;BME280;38103;42.776;23.112;2024-03-02T04:30:07;93480.88;;;5.78;85.98
52105;BME280;38103;42.776;23.112;2024-03-02T04:32:32;93479.09;;;5.82;86.84
52105;BME280;38103;42.776;23.112;2024-03-02T04:34:57;93481.38;;;5.84;85.78
52105;BME280;38103;42.776;23.112;2024-03-02T04:37:23;93483.25;;;5.83;86.39
52105;BME280;38103;42.776;23.112;2024-03-02T04:39:48;93480.69;;;5.87;85.72
52105;BME280;38103;42.776;23.112;2024-03-02T04:42:13;93478.72;;;5.84;85.34
52105;BME280;38103;42.776;23.112;2024-03-02T04:44:39;93491.06;;;5.80;86.80
52105;BME280;38103;42.776;23.112;2024-03-02T04:47:05;93487.16;;;5.74;86.81
52105;BME280;38103;42.776;23.112;2024-03-02T04:49:30;93491.22;;;5.71;87.39
52105;BME280;38103;42.776;23.112;2024-03-02T04:51:56;93485.19;;;5.71;86.82
52105;BME280;38103;42.776;23.112;2024-03-02T04:54:22;93490.47;;;5.71;87.98
52105;BME280;38103;42.776;23.112;2024-03-02T04:56:47;93494.34;;;5.77;86.92
52105;BME280;38103;42.776;23.112;2024-03-02T04:59:19;93493.44;;;5.69;88.08
52105;BME280;38103;42.776;23.112;2024-03-02T05:01:45;93495.13;;;5.61;87.63
52105;BME280;38103;42.776;23.112;2024-03-02T05:04:10;93494.28;;;5.57;88.26
52105;BME280;38103;42.776;23.112;2024-03-02T05:06:38;93497.34;;;5.59;87.72
52105;BME280;38103;42.776;23.112;2024-03-02T05:09:04;93494.16;;;5.54;89.35
52105;BME280;38103;42.776;23.112;2024-03-02T05:11:29;93486.97;;;5.51;88.47
52105;BME280;38103;42.776;23.112;2024-03-02T05:14:15;93503.50;;;5.51;88.98
52105;BME280;38103;42.776;23.112;2024-03-02T05:16:40;93498.94;;;5.48;89.64
52105;BME280;38103;42.776;23.112;2024-03-02T05:19:08;93497.31;;;5.43;88.47
52105;BME280;38103;42.776;23.112;2024-03-02T05:21:34;93506.56;;;5.53;88.21
52105;BME280;38103;42.776;23.112;2024-03-02T05:23:59;93512.44;;;5.62;88.27
52105;BME280;38103;42.776;23.112;2024-03-02T05:26:25;93509.91;;;5.66;87.69
52105;BME280;38103;42.776;23.112;2024-03-02T05:28:50;93509.66;;;5.71;87.14
52105;BME280;38103;42.776;23.112;2024-03-02T05:31:15;93511.41;;;5.67;87.42
52105;BME280;38103;42.776;23.112;2024-03-02T05:33:42;93515.94;;;5.66;87.36
52105;BME280;38103;42.776;23.112;2024-03-02T05:36:07;93518.13;;;5.64;88.22
52105;BME280;38103;42.776;23.112;2024-03-02T05:38:36;93517.28;;;5.60;88.82
52105;BME280;38103;42.776;23.112;2024-03-02T05:41:01;93519.22;;;5.63;88.36
52105;BME280;38103;42.776;23.112;2024-03-02T05:43:27;93517.44;;;5.67;88.35
52105;BME280;38103;42.776;23.112;2024-03-02T05:45:52;93513.91;;;5.76;87.91
52105;BME280;38103;42.776;23.112;2024-03-02T05:48:17;93528.16;;;5.75;88.23
52105;BME280;38103;42.776;23.112;2024-03-02T05:50:43;93529.00;;;5.79;87.55
52105;BME280;38103;42.776;23.112;2024-03-02T05:53:08;93525.34;;;5.83;88.10
52105;BME280;38103;42.776;23.112;2024-03-02T05:55:34;93529.53;;;5.84;88.05
52105;BME280;38103;42.776;23.112;2024-03-02T05:57:59;93534.44;;;5.86;87.62
52105;BME280;38103;42.776;23.112;2024-03-02T06:00:33;93537.34;;;5.81;87.33
52105;BME280;38103;42.776;23.112;2024-03-02T06:02:59;93538.19;;;5.85;87.92
52105;BME280;38103;42.776;23.112;2024-03-02T06:05:24;93527.72;;;5.88;87.55
52105;BME280;38103;42.776;23.112;2024-03-02T06:07:50;93530.47;;;5.92;86.58
52105;BME280;38103;42.776;23.112;2024-03-02T06:10:15;93523.31;;;5.93;87.35
52105;BME280;38103;42.776;23.112;2024-03-02T06:12:41;93523.69;;;5.91;88.11
52105;BME280;38103;42.776;23.112;2024-03-02T06:15:06;93526.56;;;5.86;87.37
52105;BME280;38103;42.776;23.112;2024-03-02T06:17:35;93524.59;;;5.83;87.89
52105;BME280;38103;42.776;23.112;2024-03-02T06:20:00;93528.53;;;5.89;88.20
52105;BME280;38103;42.776;23.112;2024-03-02T06:22:25;93533.00;;;5.88;88.67
52105;BME280;38103;42.776;23.112;2024-03-02T06:24:51;93530.38;;;5.88;88.20
52105;BME280;38103;42.776;23.112;2024-03-02T06:27:16;93530.38;;;5.88;88.10
52105;BME280;38103;42.776;23.112;2024-03-02T06:29:42;93541.25;;;5.87;87.83
52105;BME280;38103;42.776;23.112;2024-03-02T06:32:07;93538.44;;;5.80;88.63
52105;BME280;38103;42.776;23.112;2024-03-02T06:34:33;93543.72;;;5.80;88.18
52105;BME280;38103;42.776;23.112;2024-03-02T06:36:58;93544.63;;;5.72;89.67
52105;BME280;38103;42.776;23.112;2024-03-02T06:39:23;93549.28;;;5.62;89.87
52105;BME280;38103;42.776;23.112;2024-03-02T06:41:49;93549.88;;;5.72;89.67
52105;BME280;38103;42.776;23.112;2024-03-02T06:44:14;93535.22;;;5.71;89.68
52105;BME280;38103;42.776;23.112;2024-03-02T06:46:39;93547.94;;;5.69;89.00
52105;BME280;38103;42.776;23.112;2024-03-02T06:49:05;93549.22;;;5.75;88.75
52105;BME280;38103;42.776;23.112;2024-03-02T06:51:30;93544.13;;;5.66;89.47
52105;BME280;38103;42.776;23.112;2024-03-02T06:53:55;93549.13;;;5.71;89.50
52105;BME280;38103;42.776;23.112;2024-03-02T06:56:21;93553.63;;;5.71;88.94
52105;BME280;38103;42.776;23.112;2024-03-02T06:58:46;93551.06;;;5.58;90.83
52105;BME280;38103;42.776;23.112;2024-03-02T07:01:12;93551.72;;;5.55;89.43
52105;BME280;38103;42.776;23.112;2024-03-02T07:03:38;93552.59;;;5.59;91.08
52105;BME280;38103;42.776;23.112;2024-03-02T07:06:04;93550.41;;;5.61;90.17
52105;BME280;38103;42.776;23.112;2024-03-02T07:08:30;93558.69;;;5.63;89.13
52105;BME280;38103;42.776;23.112;2024-03-02T07:10:55;93551.41;;;5.57;91.04
52105;BME280;38103;42.776;23.112;2024-03-02T07:13:21;93558.09;;;5.54;91.43
52105;BME280;38103;42.776;23.112;2024-03-02T07:15:46;93552.75;;;5.51;90.57
52105;BME280;38103;42.776;23.112;2024-03-02T07:18:31;93553.44;;;5.63;90.35
52105;BME280;38103;42.776;23.112;2024-03-02T07:20:57;93558.91;;;5.71;89.66
52105;BME280;38103;42.776;23.112;2024-03-02T07:23:26;93555.22;;;5.59;90.11
52105;BME280;38103;42.776;23.112;2024-03-02T07:25:55;93558.81;;;5.67;90.96
52105;BME280;38103;42.776;23.112;2024-03-02T07:28:25;93561.88;;;5.69;90.29
52105;BME280;38103;42.776;23.112;2024-03-02T07:31:01;93565.78;;;5.75;90.51
52105;BME280;38103;42.776;23.112;2024-03-02T07:33:26;93559.13;;;5.65;90.84
52105;BME280;38103;42.776;23.112;2024-03-02T07:35:52;93560.16;;;5.77;90.80
52105;BME280;38103;42.776;23.112;2024-03-02T07:38:18;93566.69;;;5.67;89.83
52105;BME280;38103;42.776;23.112;2024-03-02T07:40:44;93572.63;;;5.64;91.30
52105;BME280;38103;42.776;23.112;2024-03-02T07:43:10;93563.91;;;5.76;90.95
52105;BME280;38103;42.776;23.112;2024-03-02T07:45:35;93569.63;;;5.78;91.37
52105;BME280;38103;42.776;23.112;2024-03-02T07:48:01;93574.78;;;5.74;90.44
52105;BME280;38103;42.776;23.112;2024-03-02T07:50:29;93563.47;;;5.74;90.48
52105;BME280;38103;42.776;23.112;2024-03-02T07:52:55;93570.66;;;5.89;91.30
52105;BME280;38103;42.776;23.112;2024-03-02T07:55:20;93579.63;;;5.88;89.71
52105;BME280;38103;42.776;23.112;2024-03-02T07:57:46;93572.84;;;5.87;90.86
52105;BME280;38103;42.776;23.112;2024-03-02T08:00:11;93584.91;;;5.88;89.86
52105;BME280;38103;42.776;23.112;2024-03-02T08:02:37;93581.75;;;5.82;89.92
52105;BME280;38103;42.776;23.112;2024-03-02T08:05:02;93580.31;;;5.85;89.94
52105;BME280;38103;42.776;23.112;2024-03-02T08:07:28;93579.63;;;5.88;89.69
52105;BME280;38103;42.776;23.112;2024-03-02T08:09:53;93586.88;;;5.91;88.99
52105;BME280;38103;42.776;23.112;2024-03-02T08:12:19;93592.25;;;5.95;89.49
52105;BME280;38103;42.776;23.112;2024-03-02T08:14:45;93596.94;;;6.01;90.23
52105;BME280;38103;42.776;23.112;2024-03-02T08:17:10;93592.78;;;6.00;90.46
52105;BME280;38103;42.776;23.112;2024-03-02T08:19:37;93592.94;;;6.07;90.29
52105;BME280;38103;42.776;23.112;2024-03-02T08:22:02;93599.84;;;6.12;88.86
52105;BME280;38103;42.776;23.112;2024-03-02T08:24:28;93598.81;;;6.17;88.38
52105;BME280;38103;42.776;23.112;2024-03-02T08:26:53;93601.47;;;6.17;88.71
52105;BME280;38103;42.776;23.112;2024-03-02T08:29:19;93596.44;;;6.12;89.53
52105;BME280;38103;42.776;23.112;2024-03-02T08:31:44;93600.69;;;6.16;89.70
52105;BME280;38103;42.776;23.112;2024-03-02T08:34:09;93601.47;;;6.17;88.55
52105;BME280;38103;42.776;23.112;2024-03-02T08:36:35;93599.25;;;6.19;89.49
52105;BME280;38103;42.776;23.112;2024-03-02T08:39:01;93598.56;;;6.22;88.75
52105;BME280;38103;42.776;23.112;2024-03-02T08:41:27;93599.84;;;6.28;88.50
52105;BME280;38103;42.776;23.112;2024-03-02T08:43:52;93604.00;;;6.29;88.66
52105;BME280;38103;42.776;23.112;2024-03-02T08:46:18;93598.31;;;6.27;87.66
52105;BME280;38103;42.776;23.112;2024-03-02T08:48:43;93606.38;;;6.34;88.93
52105;BME280;38103;42.776;23.112;2024-03-02T08:51:08;93597.66;;;6.30;88.95
52105;BME280;38103;42.776;23.112;2024-03-02T08:53:35;93596.25;;;6.36;88.76
52105;BME280;38103;42.776;23.112;2024-03-02T08:56:00;93602.66;;;6.35;88.31
52105;BME280;38103;42.776;23.112;2024-03-02T09:10:46;93607.63;;;7.23;84.08
52105;BME280;38103;42.776;23.112;2024-03-02T09:13:12;93603.97;;;7.12;83.62
52105;BME280;38103;42.776;23.112;2024-03-02T09:15:37;93614.66;;;7.00;85.54
52105;BME280;38103;42.776;23.112;2024-03-02T09:18:04;93614.38;;;7.05;85.39
52105;BME280;38103;42.776;23.112;2024-03-02T09:20:30;93618.94;;;6.88;84.58
52105;BME280;38103;42.776;23.112;2024-03-02T09:22:55;93624.91;;;6.85;85.71
52105;BME280;38103;42.776;23.112;2024-03-02T09:25:20;93622.75;;;6.91;85.03
52105;BME280;38103;42.776;23.112;2024-03-02T09:27:46;93627.28;;;6.90;86.30
52105;BME280;38103;42.776;23.112;2024-03-02T09:30:11;93625.91;;;6.97;85.42
52105;BME280;38103;42.776;23.112;2024-03-02T09:32:38;93623.78;;;6.86;86.21
52105;BME280;38103;42.776;23.112;2024-03-02T09:35:04;93630.75;;;6.95;86.67
52105;BME280;38103;42.776;23.112;2024-03-02T09:37:29;93627.84;;;7.00;84.92
52105;BME280;38103;42.776;23.112;2024-03-02T09:39:55;93626.34;;;6.99;83.99
52105;BME280;38103;42.776;23.112;2024-03-02T09:42:21;93630.25;;;6.89;84.96
52105;BME280;38103;42.776;23.112;2024-03-02T09:44:47;93629.91;;;6.90;84.88
52105;BME280;38103;42.776;23.112;2024-03-02T09:47:13;93624.81;;;6.82;84.77
52105;BME280;38103;42.776;23.112;2024-03-02T09:49:39;93617.22;;;6.80;85.40
52105;BME280;38103;42.776;23.112;2024-03-02T09:52:05;93622.16;;;6.98;85.09
52105;BME280;38103;42.776;23.112;2024-03-02T09:54:32;93625.91;;;6.97;86.04
52105;BME280;38103;42.776;23.112;2024-03-02T09:56:57;93624.34;;;6.96;85.36
52105;BME280;38103;42.776;23.112;2024-03-02T09:59:22;93624.31;;;6.92;84.45
52105;BME280;38103;42.776;23.112;2024-03-02T10:02:03;93629.56;;;6.92;85.30
52105;BME280;38103;42.776;23.112;2024-03-02T10:04:32;93623.00;;;7.02;85.30
52105;BME280;38103;42.776;23.112;2024-03-02T10:07:19;93622.81;;;7.10;85.80
52105;BME280;38103;42.776;23.112;2024-03-02T10:09:46;93618.47;;;7.02;84.35
52105;BME280;38103;42.776;23.112;2024-03-02T10:12:13;93615.94;;;7.25;84.96
52105;BME280;38103;42.776;23.112;2024-03-02T10:14:39;93621.16;;;7.22;83.69
52105;BME280;38103;42.776;23.112;2024-03-02T10:17:07;93617.50;;;7.26;83.40
52105;BME280;38103;42.776;23.112;2024-03-02T10:19:33;93615.53;;;7.23;84.61
52105;BME280;38103;42.776;23.112;2024-03-02T10:22:06;93612.06;;;7.39;84.56
52105;BME280;38103;42.776;23.112;2024-03-02T10:24:43;93615.84;;;7.57;83.30
52105;BME280;38103;42.776;23.112;2024-03-02T10:27:26;93610.81;;;7.71;82.34
52105;BME280;38103;42.776;23.112;2024-03-02T10:29:52;93609.44;;;7.78;80.92
52105;BME280;38103;42.776;23.112;2024-03-02T10:32:17;93616.25;;;7.79;81.37
52105;BME280;38103;42.776;23.112;2024-03-02T10:34:45;93612.22;;;7.85;81.94
52105;BME280;38103;42.776;23.112;2024-03-02T10:37:11;93610.41;;;7.89;81.01
52105;BME280;38103;42.776;23.112;2024-03-02T10:39:37;93612.28;;;7.88;80.82
52105;BME280;38103;42.776;23.112;2024-03-02T10:42:05;93608.31;;;7.98;82.07
52105;BME280;38103;42.776;23.112;2024-03-02T10:44:31;93599.25;;;7.99;83.11
52105;BME280;38103;42.776;23.112;2024-03-02T10:46:57;93606.91;;;8.04;81.63
52105;BME280;38103;42.776;23.112;2024-03-02T10:49:26;93601.91;;;7.99;82.88
52105;BME280;38103;42.776;23.112;2024-03-02T10:51:52;93596.50;;;7.92;81.94
52105;BME280;38103;42.776;23.112;2024-03-02T10:54:18;93598.03;;;7.93;81.65
52105;BME280;38103;42.776;23.112;2024-03-02T10:56:44;93600.47;;;7.82;81.17
52105;BME280;38103;42.776;23.112;2024-03-02T11:01:50;93587.16;;;7.98;82.41
52105;BME280;38103;42.776;23.112;2024-03-02T11:04:16;93596.69;;;7.83;81.76
52105;BME280;38103;42.776;23.112;2024-03-02T11:06:49;93593.84;;;7.92;81.87
52105;BME280;38103;42.776;23.112;2024-03-02T11:09:20;93593.84;;;7.92;82.35
52105;BME280;38103;42.776;23.112;2024-03-02T11:11:51;93590.66;;;7.83;81.56
52105;BME280;38103;42.776;23.112;2024-03-02T11:14:21;93586.63;;;7.89;81.18
52105;BME280;38103;42.776;23.112;2024-03-02T11:16:49;93587.16;;;7.98;80.41
52105;BME280;38103;42.776;23.112;2024-03-02T11:19:16;93581.25;;;8.05;80.39
52105;BME280;38103;42.776;23.112;2024-03-02T11:21:42;93579.59;;;7.96;81.44
52105;BME280;38103;42.776;23.112;2024-03-02T11:26:49;93580.34;;;7.97;82.53
52105;BME280;38103;42.776;23.112;2024-03-02T11:32:05;93571.94;;;8.11;80.97
52105;BME280;38103;42.776;23.112;2024-03-02T11:34:32;93577.59;;;8.13;80.55
52105;BME280;38103;42.776;23.112;2024-03-02T11:36:59;93574.56;;;8.11;80.02
52105;BME280;38103;42.776;23.112;2024-03-02T11:39:26;93569.09;;;8.23;81.07
52105;BME280;38103;42.776;23.112;2024-03-02T11:41:52;93578.81;;;8.15;80.40
52105;BME280;38103;42.776;23.112;2024-03-02T11:44:17;93571.66;;;8.19;80.19
52105;BME280;38103;42.776;23.112;2024-03-02T11:46:45;93573.25;;;8.24;80.51
52105;BME280;38103;42.776;23.112;2024-03-02T11:49:14;93576.28;;;8.23;81.00
52105;BME280;38103;42.776;23.112;2024-03-02T11:51:51;93571.56;;;8.35;79.46
52105;BME280;38103;42.776;23.112;2024-03-02T11:54:18;93579.44;;;8.32;79.46
52105;BME280;38103;42.776;23.112;2024-03-02T11:56:44;93580.13;;;8.29;79.86
52105;BME280;38103;42.776;23.112;2024-03-02T11:59:09;93575.44;;;8.18;78.97
52105;BME280;38103;42.776;23.112;2024-03-02T12:01:35;93577.13;;;8.07;79.78
52105;BME280;38103;42.776;23.112;2024-03-02T12:04:01;93575.25;;;8.08;80.72
52105;BME280;38103;42.776;23.112;2024-03-02T12:06:27;93576.50;;;8.14;81.36
52105;BME280;38103;42.776;23.112;2024-03-02T12:08:53;93571.66;;;8.19;80.73
52105;BME280;38103;42.776;23.112;2024-03-02T12:11:20;93572.47;;;8.20;80.75
52105;BME280;38103;42.776;23.112;2024-03-02T12:13:54;93576.19;;;8.19;79.70
52105;BME280;38103;42.776;23.112;2024-03-02T12:16:26;93576.91;;;8.16;79.03
52105;BME280;38103;42.776;23.112;2024-03-02T12:18:51;93578.44;;;8.17;80.82
52105;BME280;38103;42.776;23.112;2024-03-02T12:21:17;93580.94;;;8.10;80.88
52105;BME280;38103;42.776;23.112;2024-03-02T12:23:42;93578.25;;;8.06;80.78
52105;BME280;38103;42.776;23.112;2024-03-02T12:26:08;93578.44;;;8.17;80.19
52105;BME280;38103;42.776;23.112;2024-03-02T12:28:33;93580.78;;;8.22;80.29
52105;BME280;38103;42.776;23.112;2024-03-02T12:30:59;93576.69;;;8.25;79.72
52105;BME280;38103;42.776;23.112;2024-03-02T12:33:24;93575.44;;;8.18;80.48
52105;BME280;38103;42.776;23.112;2024-03-02T12:35:51;93576.19;;;8.19;80.49
52105;BME280;38103;42.776;23.112;2024-03-02T12:38:17;93578.09;;;8.18;80.86
52105;BME280;38103;42.776;23.112;2024-03-02T12:40:42;93580.63;;;8.11;81.32
52105;BME280;38103;42.776;23.112;2024-03-02T12:43:08;93579.78;;;8.07;81.24
52105;BME280;38103;42.776;23.112;2024-03-02T12:45:36;93580.53;;;8.08;81.10
52105;BME280;38103;42.776;23.112;2024-03-02T12:48:04;93579.03;;;8.07;80.74
52105;BME280;38103;42.776;23.112;2024-03-02T12:50:30;93576.84;;;8.12;81.29
52105;BME280;38103;42.776;23.112;2024-03-02T12:52:56;93575.75;;;8.13;80.66
52105;BME280;38103;42.776;23.112;2024-03-02T12:55:22;93575.13;;;8.01;80.64
52105;BME280;38103;42.776;23.112;2024-03-02T12:57:49;93575.13;;;8.01;81.07
52105;BME280;38103;42.776;23.112;2024-03-02T13:00:18;93582.53;;;8.14;80.55
52105;BME280;38103;42.776;23.112;2024-03-02T13:02:46;93580.88;;;8.06;81.62
52105;BME280;38103;42.776;23.112;2024-03-02T13:05:11;93582.44;;;8.07;81.45
52105;BME280;38103;42.776;23.112;2024-03-02T13:07:37;93588.69;;;7.99;81.69
52105;BME280;38103;42.776;23.112;2024-03-02T13:10:03;93579.03;;;8.07;81.97
52105;BME280;38103;42.776;23.112;2024-03-02T13:12:30;93585.13;;;8.11;81.54
52105;BME280;38103;42.776;23.112;2024-03-02T13:14:57;93588.25;;;8.16;80.68
52105;BME280;38103;42.776;23.112;2024-03-02T13:17:23;93581.50;;;8.19;80.94
52105;BME280;38103;42.776;23.112;2024-03-02T13:19:58;93579.38;;;8.28;80.08